Paraje, New Mexico
Current Conditions -  °F | °C
As of 3:57 PM on Monday 24 Nov 2014 (Local Time) from KGNT Reporting Station
Overcast Overcast  
Wind Chill: 27°   Ceiling: 8000
Heat Index: 37°   Visibility: 10mi
Dew Point:   Wind: 21mph
Humidity: 22%   Direction: 340°NNW
Pressure: 30.18"   Gusts: 35mph
Location:  35.0048°N, 107.383°W
Report Text: KGNT 242257Z AUTO 34018G30KT 10SM BKN080 OVC090 03/M17 A3018 RMK AO2
Loading
Personal Weather Stations






























Interactive Weather Map New forecast layout! Learn more

10-Day Weather Forecast

Advertisements
Track Severe Weather on mobile